createdAt,value
2022-12-23T00:00:40.166Z,99883.03
2022-12-23T00:03:07.024Z,99883.00
2022-12-23T00:05:40.164Z,99880.28
2022-12-23T00:08:07.174Z,99875.06
2022-12-23T00:10:34.727Z,99883.38
2022-12-23T00:13:19.802Z,99872.25
2022-12-23T00:15:46.210Z,99876.50
2022-12-23T00:18:12.539Z,99867.69
2022-12-23T00:20:38.885Z,99869.38
2022-12-23T00:23:05.236Z,99869.88
2022-12-23T00:25:41.266Z,99866.56
2022-12-23T00:28:07.608Z,99865.97
2022-12-23T00:30:33.934Z,99869.97
2022-12-23T00:33:00.265Z,99866.28
2022-12-23T00:35:29.168Z,99861.44
2022-12-23T00:37:55.498Z,99842.28
2022-12-23T00:40:40.524Z,99846.56
2022-12-23T00:43:06.889Z,99844.94
2022-12-23T00:45:33.311Z,99843.91
2022-12-23T00:48:18.541Z,99849.22
2022-12-23T00:50:44.917Z,99833.56
2022-12-23T00:53:11.240Z,99833.41
2022-12-23T00:55:37.638Z,99825.59
2022-12-23T00:58:03.958Z,99833.56
2022-12-23T01:00:49.201Z,99844.28
2022-12-23T01:03:33.977Z,99833.09
2022-12-23T01:06:01.195Z,99833.75
2022-12-23T01:08:27.610Z,99821.91
2022-12-23T01:10:54.141Z,99815.56
2022-12-23T01:13:20.862Z,99812.91
2022-12-23T01:15:47.552Z,99818.09
2022-12-23T01:18:15.721Z,99816.22
2022-12-23T01:20:42.037Z,99818.97
2022-12-23T01:23:08.406Z,99817.81
2022-12-23T01:25:34.712Z,99804.94
2022-12-23T01:28:01.038Z,99817.25
2022-12-23T01:30:27.428Z,99813.47
2022-12-23T01:32:53.770Z,99819.34
2022-12-23T01:35:20.082Z,99820.31
2022-12-23T01:37:46.411Z,99812.53
2022-12-23T01:40:12.793Z,99814.63
2022-12-23T01:42:45.390Z,99815.41
2022-12-23T01:45:25.045Z,99814.25
2022-12-23T01:47:54.679Z,99808.94
2022-12-23T01:50:27.317Z,99807.91
2022-12-23T01:53:06.873Z,99804.69
2022-12-23T01:55:36.669Z,99805.78
2022-12-23T01:58:15.129Z,99796.88
2022-12-23T02:01:00.918Z,99796.03
2022-12-23T02:03:42.512Z,99793.47
2022-12-23T02:06:58.923Z,99791.38
2022-12-23T02:09:27.435Z,99787.59
2022-12-23T02:12:05.109Z,99779.31
2022-12-23T02:15:16.392Z,99780.06
2022-12-23T02:17:49.067Z,99783.56
2022-12-23T02:20:33.755Z,99779.31
2022-12-23T02:23:15.178Z,99776.50
2022-12-23T02:25:47.596Z,99782.44
2022-12-23T02:28:23.455Z,99777.69
2022-12-23T02:30:58.054Z,99772.22
2022-12-23T02:33:30.743Z,99770.53
2022-12-23T02:35:57.040Z,99767.06
2022-12-23T02:38:23.333Z,99758.56
2022-12-23T02:41:00.512Z,99756.47
2022-12-23T02:43:35.511Z,99753.56
2022-12-23T02:46:09.272Z,99749.31
2022-12-23T02:48:49.468Z,99740.75
2022-12-23T02:51:16.230Z,99741.09
2022-12-23T02:53:50.914Z,99736.66
2022-12-23T02:56:18.401Z,99732.84
2022-12-23T02:58:50.110Z,99728.16
2022-12-23T03:01:17.361Z,99730.31
2022-12-23T03:03:45.440Z,99728.69
2022-12-23T03:06:22.053Z,99728.00
2022-12-23T03:08:49.703Z,99722.56
2022-12-23T03:11:17.873Z,99722.22
2022-12-23T03:13:59.362Z,99716.94
2022-12-23T03:16:37.640Z,99717.03
2022-12-23T03:19:03.978Z,99722.19
2022-12-23T03:21:33.248Z,99728.22
2022-12-23T03:24:09.100Z,99717.59
2022-12-23T03:26:48.512Z,99718.34
2022-12-23T03:29:19.672Z,99722.50
2022-12-23T03:31:47.071Z,99716.53
2022-12-23T03:34:17.228Z,99717.94
2022-12-23T03:36:52.217Z,99709.78
2022-12-23T03:39:23.436Z,99717.16
2022-12-23T03:41:56.886Z,99710.47
2022-12-23T03:44:26.666Z,99712.50
2022-12-23T03:47:03.135Z,99710.28
2022-12-23T03:49:31.949Z,99702.06
2022-12-23T03:52:02.857Z,99704.31
2022-12-23T03:54:41.086Z,99701.38
2022-12-23T03:57:07.666Z,99701.81
2022-12-23T03:59:36.163Z,99702.97
2022-12-23T04:02:13.837Z,99698.94
2022-12-23T04:04:45.242Z,99700.88
2022-12-23T04:07:21.297Z,99699.59
2022-12-23T04:09:48.201Z,99698.63
2022-12-23T04:12:15.027Z,99692.78
2022-12-23T04:14:48.389Z,99695.75
2022-12-23T04:17:15.509Z,99692.91
2022-12-23T04:19:45.600Z,99687.47
2022-12-23T04:22:15.724Z,99688.72
2022-12-23T04:24:42.380Z,99696.81
2022-12-23T04:27:11.425Z,99701.19
2022-12-23T04:29:38.570Z,99687.69
2022-12-23T04:32:05.315Z,99692.16
2022-12-23T04:34:31.682Z,99688.53
2022-12-23T04:36:57.993Z,99688.72
2022-12-23T04:39:24.510Z,99691.91
2022-12-23T04:41:50.883Z,99698.53
2022-12-23T04:44:17.212Z,99690.13
2022-12-23T04:46:43.617Z,99693.34
2022-12-23T04:49:10.139Z,99683.22
2022-12-23T04:51:36.558Z,99683.00
2022-12-23T04:54:02.986Z,99680.56
2022-12-23T04:56:29.335Z,99681.44
2022-12-23T04:58:55.660Z,99689.06
2022-12-23T05:01:22.125Z,99688.53
2022-12-23T05:03:48.539Z,99685.47
2022-12-23T05:06:14.867Z,99687.16
2022-12-23T05:08:41.195Z,99692.56
2022-12-23T05:11:07.562Z,99685.03
2022-12-23T05:13:33.913Z,99686.41
2022-12-23T05:16:00.390Z,99687.72
2022-12-23T05:18:26.802Z,99691.97
2022-12-23T05:20:53.125Z,99690.16
2022-12-23T05:23:19.485Z,99691.75
2022-12-23T05:25:50.044Z,99692.25
2022-12-23T05:28:16.407Z,99688.53
2022-12-23T05:30:42.831Z,99681.53
2022-12-23T05:33:09.314Z,99681.97
2022-12-23T05:35:35.684Z,99674.53
2022-12-23T05:38:03.308Z,99679.84
2022-12-23T05:40:33.490Z,99684.19
2022-12-23T05:43:00.418Z,99680.69
2022-12-23T05:45:26.819Z,99684.19
2022-12-23T05:47:53.330Z,99685.69
2022-12-23T05:50:19.639Z,99691.97
2022-12-23T05:52:45.994Z,99694.81
2022-12-23T05:55:12.309Z,99679.41
2022-12-23T05:57:38.663Z,99678.88
2022-12-23T06:00:05.170Z,99673.47
2022-12-23T06:02:31.680Z,99675.91
2022-12-23T06:04:58.145Z,99679.09
2022-12-23T06:07:24.472Z,99683.69
2022-12-23T06:09:50.845Z,99690.56
2022-12-23T06:12:17.169Z,99692.25
2022-12-23T06:14:43.510Z,99700.84
2022-12-23T06:17:09.810Z,99693.44
2022-12-23T06:19:36.177Z,99705.44
2022-12-23T06:22:02.499Z,99700.13
2022-12-23T06:24:28.849Z,99707.25
2022-12-23T06:26:57.436Z,99710.84
2022-12-23T06:29:24.344Z,99720.44
2022-12-23T06:31:50.793Z,99718.09
2022-12-23T06:34:17.345Z,99729.47
2022-12-23T06:36:43.726Z,99720.94
2022-12-23T06:39:10.654Z,99723.72
2022-12-23T06:41:36.970Z,99734.88
2022-12-23T06:44:03.454Z,99742.75
2022-12-23T06:46:30.001Z,99753.44
2022-12-23T06:48:56.401Z,99743.19
2022-12-23T06:51:22.738Z,99751.59
2022-12-23T06:53:49.061Z,99753.03
2022-12-23T06:56:15.423Z,99759.19
2022-12-23T06:58:41.807Z,99765.13
2022-12-23T07:01:09.997Z,99768.69
2022-12-23T07:03:36.785Z,99770.88
2022-12-23T07:06:03.491Z,99772.47
2022-12-23T07:08:29.831Z,99768.81
2022-12-23T07:10:59.691Z,99766.31
2022-12-23T07:13:27.967Z,99771.97
2022-12-23T07:15:54.328Z,99776.00
2022-12-23T07:18:21.748Z,99778.16
2022-12-23T07:20:48.094Z,99776.53
2022-12-23T07:23:14.417Z,99770.81
2022-12-23T07:25:40.761Z,99781.44
2022-12-23T07:28:07.141Z,99788.56
2022-12-23T07:30:33.521Z,99782.31
2022-12-23T07:32:59.859Z,99786.56
2022-12-23T07:35:26.311Z,99790.16
2022-12-23T07:37:53.430Z,99782.09
2022-12-23T07:40:19.763Z,99782.31
2022-12-23T07:42:48.435Z,99800.13
2022-12-23T07:45:14.855Z,99800.59
2022-12-23T07:47:41.512Z,99802.31
2022-12-23T07:50:08.274Z,99791.78
2022-12-23T07:52:34.603Z,99791.69
2022-12-23T07:55:00.974Z,99787.34
2022-12-23T07:57:29.299Z,99798.25
2022-12-23T07:59:55.754Z,99801.47
2022-12-23T08:02:25.119Z,99809.13
2022-12-23T08:04:52.025Z,99809.13
2022-12-23T08:07:18.467Z,99818.56
2022-12-23T08:09:45.423Z,99819.38
2022-12-23T08:12:12.282Z,99815.19
2022-12-23T08:14:38.701Z,99824.25
2022-12-23T08:17:05.146Z,99816.91
2022-12-23T08:19:31.696Z,99816.19
2022-12-23T08:21:58.096Z,99812.53
2022-12-23T08:24:24.492Z,99819.06
2022-12-23T08:26:51.073Z,99828.84
2022-12-23T08:29:17.721Z,99826.19
2022-12-23T08:31:44.147Z,99825.03
2022-12-23T08:34:10.774Z,99835.13
2022-12-23T08:36:37.167Z,99822.88
2022-12-23T08:39:05.787Z,99833.41
2022-12-23T08:41:33.525Z,99831.56
2022-12-23T08:44:00.130Z,99833.16
2022-12-23T08:46:26.784Z,99831.16
2022-12-23T08:48:53.590Z,99824.97
2022-12-23T08:51:20.769Z,99834.13
2022-12-23T08:53:53.552Z,99837.44
2022-12-23T08:56:30.598Z,99833.94
2022-12-23T08:58:57.893Z,99848.84
2022-12-23T09:01:28.402Z,99844.63
2022-12-23T09:03:55.195Z,99845.19
2022-12-23T09:06:28.662Z,99847.00
2022-12-23T09:08:56.204Z,99880.97
2022-12-23T09:11:24.705Z,99869.41
2022-12-23T09:13:51.442Z,99877.75
2022-12-23T09:16:18.076Z,99876.00
2022-12-23T09:18:44.650Z,99880.72
2022-12-23T09:22:00.195Z,99879.53
2022-12-23T09:24:26.655Z,99891.09
2022-12-23T09:26:53.156Z,99897.47
2022-12-23T09:29:19.658Z,99909.94
2022-12-23T09:31:46.095Z,99917.81
2022-12-23T09:34:12.601Z,99915.31
2022-12-23T09:36:39.000Z,99922.91
2022-12-23T09:39:05.380Z,99926.38
2022-12-23T09:45:22.649Z,99929.47
2022-12-23T09:51:20.852Z,99934.91
2022-12-23T09:54:04.302Z,99946.50
2022-12-23T09:57:06.521Z,99944.00
2022-12-23T09:59:55.125Z,99944.53
2022-12-23T10:08:40.425Z,99946.56
2022-12-23T10:11:13.186Z,99948.06
2022-12-23T10:13:45.137Z,99946.75
2022-12-23T10:16:13.268Z,99944.44
2022-12-23T10:18:48.319Z,99950.91
2022-12-23T10:21:50.268Z,99957.91
2022-12-23T10:24:38.572Z,99953.63
2022-12-23T10:27:13.515Z,99964.00
2022-12-23T10:34:11.411Z,99955.13
2022-12-23T10:36:54.491Z,99938.50
2022-12-23T10:46:10.022Z,99939.31
2022-12-23T10:48:51.137Z,99926.56
2022-12-23T10:51:30.807Z,99927.41
2022-12-23T10:54:02.749Z,99931.63
2022-12-23T10:56:39.015Z,99935.38
2022-12-23T10:59:07.232Z,99940.91
2022-12-23T11:01:57.700Z,99942.53
2022-12-23T11:04:40.295Z,99940.56
2022-12-23T11:07:44.485Z,99939.75
2022-12-23T11:21:07.402Z,99957.63
2022-12-23T11:23:33.180Z,99958.06
2022-12-23T11:35:55.985Z,99963.75
2022-12-23T11:42:19.105Z,99965.38
2022-12-23T11:44:49.096Z,99963.44
2022-12-23T11:47:35.875Z,99958.44
2022-12-23T11:50:21.631Z,99964.66
2022-12-23T11:52:52.161Z,99973.25
2022-12-23T11:55:26.414Z,99968.59
2022-12-23T11:57:53.103Z,99969.34
2022-12-23T12:00:23.622Z,99971.75
2022-12-23T12:03:03.339Z,99980.91
2022-12-23T12:05:41.197Z,99980.78
2022-12-23T12:08:14.314Z,99990.59
2022-12-23T12:10:41.939Z,99999.69
2022-12-23T12:13:20.089Z,100001.53
2022-12-23T12:16:02.963Z,100001.66
2022-12-23T12:18:29.470Z,100002.69
2022-12-23T12:20:59.728Z,100004.31
2022-12-23T12:23:46.720Z,100002.88
2022-12-23T12:26:25.808Z,99992.97
2022-12-23T12:28:56.601Z,99988.06
2022-12-23T12:31:26.721Z,99988.53
2022-12-23T12:33:58.292Z,99998.63
2022-12-23T12:36:30.384Z,99992.69
2022-12-23T12:38:57.875Z,99989.91
2022-12-23T12:41:37.024Z,99987.38
2022-12-23T12:44:06.408Z,99985.56
2022-12-23T12:46:47.010Z,99983.75
2022-12-23T12:49:24.336Z,99992.03
2022-12-23T12:52:09.440Z,99982.44
2022-12-23T12:54:40.024Z,99988.66
2022-12-23T12:57:11.389Z,99980.84
2022-12-23T12:59:39.062Z,99969.75
2022-12-23T13:02:11.695Z,99975.00
2022-12-23T13:04:58.081Z,99975.84
2022-12-23T13:07:30.743Z,99983.09
2022-12-23T13:10:15.389Z,99988.78
2022-12-23T13:13:00.877Z,99989.91
2022-12-23T13:15:47.498Z,99978.75
2022-12-23T13:18:35.725Z,99977.53
2022-12-23T13:22:10.935Z,99970.53
2022-12-23T13:31:20.968Z,99945.59
2022-12-23T13:37:20.934Z,99949.16
2022-12-23T13:40:06.209Z,99952.00
2022-12-23T13:42:35.884Z,99950.19
2022-12-23T13:45:08.603Z,99941.56
2022-12-23T13:47:41.469Z,99933.69
2022-12-23T13:50:11.503Z,99941.31
2022-12-23T13:52:55.634Z,99944.97
2022-12-23T13:55:21.998Z,99940.72
2022-12-23T14:01:10.677Z,99933.69
2022-12-23T14:03:38.489Z,99942.97
2022-12-23T14:06:20.213Z,99938.59
2022-12-23T14:08:49.330Z,99937.75
2022-12-23T14:11:21.865Z,99937.34
2022-12-23T14:13:55.257Z,99944.13
2022-12-23T14:16:46.940Z,99935.06
2022-12-23T14:19:36.899Z,99927.53
2022-12-23T14:22:13.203Z,99941.25
2022-12-23T14:25:23.186Z,99935.41
2022-12-23T14:31:29.600Z,99941.97
2022-12-23T14:40:46.168Z,99939.16
2022-12-23T14:43:32.000Z,99949.69
2022-12-23T14:46:06.114Z,99955.41
2022-12-23T14:48:32.779Z,99956.41
2022-12-23T14:50:59.334Z,99953.19
2022-12-23T14:53:29.972Z,99958.91
2022-12-23T14:56:21.161Z,99960.28
2022-12-23T14:58:52.366Z,99960.41
2022-12-23T15:01:52.426Z,99962.78
2022-12-23T15:07:47.681Z,99967.63
2022-12-23T15:10:20.127Z,99971.84
2022-12-23T15:12:56.188Z,99969.75
2022-12-23T15:15:25.126Z,99975.38
2022-12-23T15:18:01.367Z,99982.88
2022-12-23T15:20:27.724Z,99974.69
2022-12-23T15:22:59.354Z,99968.25
2022-12-23T15:25:27.695Z,99967.78
2022-12-23T15:28:01.463Z,99971.44
2022-12-23T15:30:30.209Z,99971.06
2022-12-23T15:33:01.904Z,99970.94
2022-12-23T15:35:33.062Z,99971.69
2022-12-23T15:38:00.659Z,99970.41
2022-12-23T15:40:28.957Z,99969.75
2022-12-23T15:42:55.412Z,99977.09
2022-12-23T15:45:31.077Z,99977.69
2022-12-23T15:47:57.481Z,99962.09
2022-12-23T15:50:23.919Z,99958.41
2022-12-23T15:52:50.641Z,99950.84
2022-12-23T15:55:21.379Z,99959.66
2022-12-23T15:57:50.554Z,99959.66
2022-12-23T16:00:23.310Z,99957.56
2022-12-23T16:03:10.450Z,99959.94
2022-12-23T16:05:38.181Z,99964.84
2022-12-23T16:08:13.843Z,99962.97
2022-12-23T16:10:41.036Z,99972.38
2022-12-23T16:13:16.955Z,99972.09
2022-12-23T16:15:43.704Z,99980.06
2022-12-23T16:18:14.465Z,99980.91
2022-12-23T16:20:45.596Z,99973.59
2022-12-23T16:23:12.716Z,99974.25
2022-12-23T16:25:39.747Z,99970.75
2022-12-23T16:28:12.919Z,99976.06
2022-12-23T16:30:44.216Z,99979.41
2022-12-23T16:33:25.638Z,99979.69
2022-12-23T16:35:53.396Z,99974.94
2022-12-23T16:38:21.568Z,99973.91
2022-12-23T16:40:49.978Z,99963.47
2022-12-23T16:43:16.883Z,99966.38
2022-12-23T16:45:44.439Z,99969.81
2022-12-23T16:48:17.037Z,99969.63
2022-12-23T16:50:44.574Z,99974.75
2022-12-23T16:53:12.489Z,99973.25
2022-12-23T16:55:41.738Z,99961.06
2022-12-23T16:58:12.653Z,99959.09
2022-12-23T17:00:39.616Z,99955.00
2022-12-23T17:03:06.596Z,99950.63
2022-12-23T17:05:33.421Z,99952.22
2022-12-23T17:07:59.985Z,99952.22
2022-12-23T17:10:26.467Z,99936.28
2022-12-23T17:12:52.988Z,99930.44
2022-12-23T17:15:24.189Z,99924.66
2022-12-23T17:17:51.960Z,99925.88
2022-12-23T17:20:19.205Z,99920.94
2022-12-23T17:22:46.706Z,99916.59
2022-12-23T17:25:14.248Z,99915.44
2022-12-23T17:27:40.897Z,99902.59
2022-12-23T17:30:17.630Z,99916.09
2022-12-23T17:32:50.027Z,99908.50
2022-12-23T17:35:16.573Z,99909.63
2022-12-23T17:37:43.603Z,99910.31
2022-12-23T17:40:11.523Z,99904.34
2022-12-23T17:42:37.958Z,99906.41
2022-12-23T17:45:04.689Z,99897.38
2022-12-23T17:47:31.111Z,99902.13
2022-12-23T17:49:57.514Z,99895.34
2022-12-23T17:52:24.347Z,99889.19
2022-12-23T17:54:51.208Z,99897.72
2022-12-23T17:57:18.113Z,99887.22
2022-12-23T17:59:47.677Z,99887.25
2022-12-23T18:02:20.868Z,99890.97
2022-12-23T18:04:47.308Z,99883.59
2022-12-23T18:07:13.737Z,99891.63
2022-12-23T18:09:40.110Z,99889.19
2022-12-23T18:12:06.761Z,99891.94
2022-12-23T18:14:33.318Z,99895.03
2022-12-23T18:16:59.828Z,99891.06
2022-12-23T18:19:26.166Z,99887.69
2022-12-23T18:21:52.807Z,99887.28
2022-12-23T18:24:19.175Z,99880.44
2022-12-23T18:26:46.076Z,99875.34
2022-12-23T18:29:12.423Z,99872.28
2022-12-23T18:31:48.523Z,99872.81
2022-12-23T18:34:17.649Z,99876.44
2022-12-23T18:36:44.217Z,99872.81
2022-12-23T18:39:10.597Z,99877.59
2022-12-23T18:41:36.984Z,99874.84
2022-12-23T18:44:03.402Z,99871.75
2022-12-23T18:46:29.781Z,99868.56
2022-12-23T18:48:56.140Z,99867.50
2022-12-23T18:51:22.677Z,99878.06
2022-12-23T18:53:51.987Z,99874.75
2022-12-23T18:56:21.165Z,99876.84
2022-12-23T18:58:51.354Z,99874.56
2022-12-23T19:01:18.707Z,99879.72
2022-12-23T19:03:45.274Z,99868.09
2022-12-23T19:06:15.556Z,99866.81
2022-12-23T19:08:42.558Z,99871.91
2022-12-23T19:11:13.819Z,99871.53
2022-12-23T19:13:40.219Z,99871.28
2022-12-23T19:16:06.706Z,99869.69
2022-12-23T19:18:33.094Z,99865.97
2022-12-23T19:21:02.964Z,99870.03
2022-12-23T19:23:29.410Z,99862.91
2022-12-23T19:25:55.825Z,99872.03
2022-12-23T19:28:22.292Z,99869.75
2022-12-23T19:30:49.330Z,99876.97
2022-12-23T19:33:15.939Z,99870.41
2022-12-23T19:35:42.798Z,99865.22
2022-12-23T19:38:12.759Z,99865.66
2022-12-23T19:40:39.771Z,99865.09
2022-12-23T19:43:06.375Z,99856.22
2022-12-23T19:45:32.999Z,99859.28
2022-12-23T19:47:59.642Z,99863.50
2022-12-23T19:50:27.291Z,99860.53
2022-12-23T19:52:54.831Z,99863.50
2022-12-23T19:55:21.236Z,99857.88
2022-12-23T19:57:47.679Z,99854.66
2022-12-23T20:00:17.906Z,99847.63
2022-12-23T20:02:46.792Z,99849.81
2022-12-23T20:05:13.416Z,99847.56
2022-12-23T20:07:40.020Z,99849.25
2022-12-23T20:10:07.092Z,99846.13
2022-12-23T20:12:33.600Z,99839.06
2022-12-23T20:15:00.226Z,99840.63
2022-12-23T20:17:29.569Z,99827.72
2022-12-23T20:20:09.256Z,99826.94
2022-12-23T20:22:36.101Z,99827.09
2022-12-23T20:25:05.357Z,99826.53
2022-12-23T20:27:33.545Z,99821.59
2022-12-23T20:30:01.268Z,99819.34
2022-12-23T20:32:29.561Z,99810.19
2022-12-23T20:34:56.145Z,99808.03
2022-12-23T20:37:22.817Z,99811.63
2022-12-23T20:39:57.591Z,99804.53
2022-12-23T20:42:29.300Z,99793.31
2022-12-23T20:44:55.740Z,99803.16
2022-12-23T20:47:27.337Z,99804.22
2022-12-23T20:50:00.310Z,99808.56
2022-12-23T20:52:27.118Z,99802.94
2022-12-23T20:54:56.351Z,99808.47
2022-12-23T20:57:31.606Z,99813.81
2022-12-23T21:00:12.408Z,99804.13
2022-12-23T21:02:39.314Z,99805.47
2022-12-23T21:05:11.960Z,99808.25
2022-12-23T21:07:38.463Z,99804.56
2022-12-23T21:10:07.255Z,99803.41
2022-12-23T21:12:33.988Z,99809.44
2022-12-23T21:15:03.038Z,99811.34
2022-12-23T21:17:31.542Z,99810.59
2022-12-23T21:19:59.373Z,99803.94
2022-12-23T21:22:28.984Z,99804.38
2022-12-23T21:24:55.622Z,99809.41
2022-12-23T21:27:31.376Z,99806.28
2022-12-23T21:30:01.205Z,99800.53
2022-12-23T21:32:28.131Z,99796.94
2022-12-23T21:34:57.157Z,99791.72
2022-12-23T21:37:27.662Z,99795.66
2022-12-23T21:40:00.648Z,99800.00
2022-12-23T21:42:27.337Z,99792.78
2022-12-23T21:44:55.459Z,99796.75
2022-12-23T21:47:22.103Z,99798.13
2022-12-23T21:49:48.558Z,99794.66
2022-12-23T21:52:15.180Z,99797.84
2022-12-23T21:54:41.643Z,99785.72
2022-12-23T21:57:10.538Z,99787.69
2022-12-23T21:59:37.148Z,99778.03
2022-12-23T22:02:12.063Z,99789.16
2022-12-23T22:04:38.907Z,99788.19
2022-12-23T22:07:07.995Z,99790.44
2022-12-23T22:09:34.481Z,99791.88
2022-12-23T22:12:01.463Z,99784.91
2022-12-23T22:14:31.618Z,99783.91
2022-12-23T22:16:58.174Z,99786.44
2022-12-23T22:19:24.663Z,99783.41
2022-12-23T22:21:51.163Z,99784.63
2022-12-23T22:24:17.902Z,99780.25
2022-12-23T22:26:44.444Z,99771.75
2022-12-23T22:32:07.348Z,99777.66
2022-12-23T22:34:34.005Z,99781.22
2022-12-23T22:37:00.631Z,99772.63
2022-12-23T22:39:28.356Z,99782.88
2022-12-23T22:41:57.806Z,99774.03
2022-12-23T22:44:24.371Z,99781.53
2022-12-23T22:46:53.250Z,99772.63
2022-12-23T22:49:22.334Z,99770.28
2022-12-23T22:51:48.831Z,99787.06
2022-12-23T22:54:15.410Z,99768.38
2022-12-23T22:56:42.071Z,99777.09
2022-12-23T22:59:17.068Z,99771.59
2022-12-23T23:01:43.490Z,99776.06
2022-12-23T23:04:10.242Z,99780.91
2022-12-23T23:06:38.255Z,99779.38
2022-12-23T23:09:23.108Z,99779.38
2022-12-23T23:11:49.744Z,99773.88
2022-12-23T23:14:16.375Z,99782.03
2022-12-23T23:16:42.734Z,99784.88
2022-12-23T23:19:10.451Z,99788.56
2022-12-23T23:21:37.734Z,99787.53
2022-12-23T23:24:04.685Z,99788.56
2022-12-23T23:26:31.036Z,99784.47
2022-12-23T23:28:57.444Z,99788.19
2022-12-23T23:34:10.764Z,99795.28
2022-12-23T23:36:37.176Z,99791.13
2022-12-23T23:39:03.669Z,99799.28
2022-12-23T23:41:30.040Z,99794.19
2022-12-23T23:43:56.371Z,99798.78
2022-12-23T23:46:22.920Z,99794.13
2022-12-23T23:48:52.297Z,99798.84
2022-12-23T23:51:18.690Z,99806.44
2022-12-23T23:53:45.013Z,99800.28
2022-12-23T23:56:11.504Z,99805.50
2022-12-23T23:58:38.057Z,99808.50
